createdAt,value
2018-05-27T00:01:26.907Z,61.07
2018-05-27T00:03:55.382Z,60.97
2018-05-27T00:06:24.481Z,61.01
2018-05-27T00:08:52.807Z,61.04
2018-05-27T00:11:21.514Z,61.45
2018-05-27T00:13:49.885Z,61.55
2018-05-27T00:16:18.229Z,61.58
2018-05-27T00:18:46.574Z,61.47
2018-05-27T00:21:14.925Z,61.11
2018-05-27T00:23:43.262Z,61.24
2018-05-27T00:26:11.633Z,61.67
2018-05-27T00:28:39.970Z,61.02
2018-05-27T00:31:08.346Z,61.25
2018-05-27T00:33:37.152Z,61.76
2018-05-27T00:36:05.544Z,60.65
2018-05-27T00:38:33.886Z,61.73
2018-05-27T00:41:02.299Z,61.80
2018-05-27T00:43:31.389Z,61.73
2018-05-27T00:46:00.488Z,62.28
2018-05-27T00:48:28.849Z,62.56
2018-05-27T00:50:57.236Z,62.85
2018-05-27T00:53:43.689Z,62.85
2018-05-27T00:56:12.043Z,63.21
2018-05-27T00:58:40.390Z,63.34
2018-05-27T01:01:09.517Z,63.88
2018-05-27T01:03:37.885Z,65.17
2018-05-27T01:06:06.272Z,64.49
2018-05-27T01:08:34.613Z,64.46
2018-05-27T01:11:02.916Z,64.35
2018-05-27T01:13:31.264Z,64.71
2018-05-27T01:16:00.629Z,65.64
2018-05-27T01:18:28.985Z,65.39
2018-05-27T01:20:58.142Z,65.48
2018-05-27T01:23:27.333Z,65.40
2018-05-27T01:25:55.715Z,65.13
2018-05-27T01:28:24.071Z,64.95
2018-05-27T01:30:52.450Z,66.06
2018-05-27T01:33:20.785Z,65.72
2018-05-27T01:35:49.887Z,65.78
2018-05-27T01:38:19.221Z,65.45
2018-05-27T01:40:47.588Z,65.16
2018-05-27T01:43:15.946Z,64.98
2018-05-27T01:45:45.108Z,64.94
2018-05-27T01:48:13.483Z,65.70
2018-05-27T01:50:41.832Z,65.94
2018-05-27T01:53:10.199Z,66.58
2018-05-27T01:55:38.526Z,66.84
2018-05-27T01:58:06.899Z,67.17
2018-05-27T02:00:35.849Z,66.44
2018-05-27T02:03:04.172Z,66.57
2018-05-27T02:05:32.482Z,66.70
2018-05-27T02:08:01.612Z,66.92
2018-05-27T02:10:29.995Z,67.37
2018-05-27T02:12:58.357Z,66.96
2018-05-27T02:15:26.759Z,67.50
2018-05-27T02:17:55.117Z,67.49
2018-05-27T02:20:23.485Z,67.90
2018-05-27T02:22:52.137Z,68.09
2018-05-27T02:25:20.504Z,67.93
2018-05-27T02:27:48.857Z,68.76
2018-05-27T02:30:17.213Z,68.37
2018-05-27T02:32:45.687Z,68.09
2018-05-27T02:35:14.028Z,68.29
2018-05-27T02:37:42.410Z,68.09
2018-05-27T02:40:10.782Z,67.55
2018-05-27T02:42:39.108Z,67.73
2018-05-27T02:45:07.810Z,68.04
2018-05-27T02:47:36.160Z,68.38
2018-05-27T02:50:04.502Z,69.11
2018-05-27T02:52:33.680Z,68.37
2018-05-27T02:55:02.019Z,68.40
2018-05-27T02:57:30.375Z,69.25
2018-05-27T02:59:58.745Z,69.42
2018-05-27T03:02:27.878Z,69.08
2018-05-27T03:04:56.209Z,69.23
2018-05-27T03:07:24.968Z,69.20
2018-05-27T03:09:53.312Z,69.33
2018-05-27T03:12:21.667Z,68.71
2018-05-27T03:14:50.004Z,69.21
2018-05-27T03:17:18.406Z,69.07
2018-05-27T03:19:46.722Z,68.95
2018-05-27T03:22:15.823Z,68.95
2018-05-27T03:24:44.941Z,69.63
2018-05-27T03:27:13.292Z,69.02
2018-05-27T03:29:41.939Z,68.79
2018-05-27T03:32:10.256Z,68.21
2018-05-27T03:34:38.626Z,68.19
2018-05-27T03:37:07.012Z,68.20
2018-05-27T03:39:35.486Z,67.73
2018-05-27T03:42:03.863Z,68.36
2018-05-27T03:44:32.264Z,68.28
2018-05-27T03:47:01.446Z,68.18
2018-05-27T03:49:29.881Z,67.59
2018-05-27T03:51:58.505Z,68.65
2018-05-27T03:54:26.862Z,69.59
2018-05-27T03:56:55.220Z,68.41
2018-05-27T03:59:23.668Z,68.69
2018-05-27T04:01:52.843Z,68.42
2018-05-27T04:04:53.784Z,67.70
2018-05-27T04:07:39.839Z,67.96
2018-05-27T04:10:08.534Z,68.60
2018-05-27T04:12:36.946Z,68.42
2018-05-27T04:15:05.364Z,69.39
2018-05-27T04:17:33.801Z,69.47
2018-05-27T04:20:02.199Z,69.16
2018-05-27T04:22:31.376Z,68.86
2018-05-27T04:24:59.864Z,69.22
2018-05-27T04:27:28.260Z,68.79
2018-05-27T04:29:56.667Z,69.12
2018-05-27T04:32:36.164Z,69.42
2018-05-27T04:35:04.634Z,69.10
2018-05-27T04:37:32.979Z,68.48
2018-05-27T04:40:01.405Z,68.88
2018-05-27T04:42:29.802Z,68.55
2018-05-27T04:44:58.243Z,68.76
2018-05-27T04:47:26.653Z,68.52
2018-05-27T04:49:55.043Z,68.30
2018-05-27T04:52:23.448Z,67.77
2018-05-27T04:54:51.987Z,67.23
2018-05-27T04:57:20.372Z,66.65
2018-05-27T04:59:48.697Z,66.37
2018-05-27T05:02:17.069Z,65.93
2018-05-27T05:04:45.420Z,66.22
2018-05-27T05:07:14.572Z,65.36
2018-05-27T05:09:42.975Z,66.54
2018-05-27T05:12:11.360Z,67.17
2018-05-27T05:14:39.741Z,67.41
2018-05-27T05:17:08.195Z,66.70
2018-05-27T05:19:36.541Z,67.64
2018-05-27T05:22:04.965Z,67.16
2018-05-27T05:24:33.364Z,66.75
2018-05-27T05:27:02.564Z,67.43
2018-05-27T05:29:31.760Z,67.14
2018-05-27T05:32:00.189Z,68.09
2018-05-27T05:34:28.583Z,67.99
2018-05-27T05:36:56.977Z,67.36
2018-05-27T05:39:25.882Z,67.30
2018-05-27T05:41:54.485Z,67.67
2018-05-27T05:44:23.639Z,68.08
2018-05-27T05:46:52.072Z,68.47
2018-05-27T05:49:21.343Z,68.36
2018-05-27T05:51:49.758Z,68.64
2018-05-27T05:54:18.131Z,68.28
2018-05-27T05:56:47.411Z,68.37
2018-05-27T05:59:15.758Z,67.71
2018-05-27T06:01:44.251Z,67.83
2018-05-27T06:04:12.652Z,68.09
2018-05-27T06:06:41.034Z,67.99
2018-05-27T06:09:09.474Z,67.52
2018-05-27T06:11:37.914Z,68.27
2018-05-27T06:14:07.101Z,68.56
2018-05-27T06:16:36.369Z,68.16
2018-05-27T06:19:04.784Z,67.90
2018-05-27T06:21:33.139Z,67.38
2018-05-27T06:24:02.009Z,66.77
2018-05-27T06:26:30.467Z,66.36
2018-05-27T06:28:58.902Z,65.98
2018-05-27T06:31:27.382Z,65.02
2018-05-27T06:33:55.839Z,64.45
2018-05-27T06:36:24.220Z,64.63
2018-05-27T06:38:52.599Z,65.90
2018-05-27T06:41:21.028Z,65.21
2018-05-27T06:43:49.408Z,64.97
2018-05-27T06:46:18.713Z,64.33
2018-05-27T06:48:47.115Z,64.80
2018-05-27T06:51:15.526Z,65.00
2018-05-27T06:53:44.640Z,65.62
2018-05-27T06:56:13.006Z,64.54
2018-05-27T06:58:41.359Z,63.67
2018-05-27T07:01:09.737Z,64.27
2018-05-27T07:03:38.068Z,64.12
2018-05-27T07:06:06.382Z,63.62
2018-05-27T07:08:35.135Z,63.63
2018-05-27T07:11:03.525Z,62.71
2018-05-27T07:13:32.615Z,61.74
2018-05-27T07:16:01.754Z,60.49
2018-05-27T07:18:30.116Z,59.24
2018-05-27T07:20:58.463Z,58.90
2018-05-27T07:23:27.586Z,58.28
2018-05-27T07:25:55.936Z,56.17
2018-05-27T07:28:24.309Z,55.05
2018-05-27T07:30:53.127Z,53.76
2018-05-27T07:33:21.491Z,53.30
2018-05-27T07:35:49.873Z,56.10
2018-05-27T07:38:18.243Z,57.20
2018-05-27T07:40:46.628Z,57.04
2018-05-27T07:43:15.053Z,55.64
2018-05-27T07:45:43.411Z,54.08
2018-05-27T07:48:11.778Z,54.25
2018-05-27T07:50:40.911Z,53.97
2018-05-27T07:53:09.447Z,53.08
2018-05-27T07:55:37.802Z,54.04
2018-05-27T07:58:06.147Z,52.92
2018-05-27T08:00:34.497Z,53.34
2018-05-27T08:03:02.838Z,53.48
2018-05-27T08:05:31.186Z,52.99
2018-05-27T08:07:59.571Z,52.77
2018-05-27T08:10:27.901Z,52.35
2018-05-27T08:12:56.989Z,51.73
2018-05-27T08:15:26.569Z,51.39
2018-05-27T08:17:54.944Z,51.48
2018-05-27T08:20:23.252Z,51.60
2018-05-27T08:22:51.623Z,51.57
2018-05-27T08:25:19.980Z,51.17
2018-05-27T08:27:48.312Z,52.05
2018-05-27T08:30:16.669Z,51.71
2018-05-27T08:32:45.022Z,51.42
2018-05-27T08:35:13.439Z,51.86
2018-05-27T08:37:42.112Z,51.45
2018-05-27T08:40:10.452Z,51.72
2018-05-27T08:42:38.769Z,51.24
2018-05-27T08:45:07.164Z,50.06
2018-05-27T08:47:35.504Z,50.67
2018-05-27T08:50:03.835Z,50.00
2018-05-27T08:52:32.249Z,50.30
2018-05-27T08:55:00.553Z,51.04
2018-05-27T08:57:28.963Z,51.66
2018-05-27T08:59:58.324Z,49.82
2018-05-27T09:02:26.786Z,48.67
2018-05-27T09:04:55.213Z,48.33
2018-05-27T09:07:24.399Z,48.47
2018-05-27T09:09:52.778Z,48.90
2018-05-27T09:12:21.129Z,46.97
2018-05-27T09:14:50.268Z,47.42
2018-05-27T09:17:19.384Z,47.16
2018-05-27T09:19:47.811Z,46.87
2018-05-27T09:22:16.656Z,45.68
2018-05-27T09:24:44.984Z,44.34
2018-05-27T09:27:13.470Z,44.54
2018-05-27T09:29:41.884Z,43.97
2018-05-27T09:32:10.338Z,42.82
2018-05-27T09:34:38.709Z,42.87
2018-05-27T09:37:07.165Z,42.96
2018-05-27T09:39:36.302Z,43.92
2018-05-27T09:42:04.663Z,43.17
2018-05-27T09:44:33.365Z,41.74
2018-05-27T09:47:01.814Z,42.14
2018-05-27T09:49:30.239Z,41.84
2018-05-27T09:51:59.486Z,41.88
2018-05-27T09:54:27.873Z,41.75
2018-05-27T09:56:56.377Z,41.74
2018-05-27T09:59:24.807Z,40.97
2018-05-27T10:01:53.143Z,40.33
2018-05-27T10:04:21.504Z,40.89
2018-05-27T10:06:50.099Z,40.74
2018-05-27T10:09:18.652Z,38.70
2018-05-27T10:11:47.182Z,37.75
2018-05-27T10:14:15.581Z,38.34
2018-05-27T10:16:44.057Z,38.45
2018-05-27T10:19:13.354Z,37.94
2018-05-27T10:21:42.003Z,37.63
2018-05-27T10:24:10.504Z,37.68
2018-05-27T10:26:38.884Z,37.61
2018-05-27T10:29:07.371Z,37.59
2018-05-27T10:31:35.815Z,37.19
2018-05-27T10:34:04.253Z,37.00
2018-05-27T10:36:32.621Z,36.61
2018-05-27T10:39:01.828Z,36.10
2018-05-27T10:41:30.918Z,36.21
2018-05-27T10:43:59.319Z,35.61
2018-05-27T10:46:27.778Z,35.39
2018-05-27T10:48:56.912Z,34.27
2018-05-27T10:51:25.688Z,33.93
2018-05-27T10:53:54.099Z,34.29
2018-05-27T10:56:22.422Z,33.85
2018-05-27T10:58:51.540Z,33.55
2018-05-27T11:01:19.886Z,33.34
2018-05-27T11:03:48.197Z,33.81
2018-05-27T11:06:16.572Z,34.06
2018-05-27T11:08:44.903Z,32.90
2018-05-27T11:11:13.261Z,31.21
2018-05-27T11:13:42.109Z,31.25
2018-05-27T11:16:11.201Z,30.75
2018-05-27T11:18:40.408Z,30.98
2018-05-27T11:21:08.822Z,30.93
2018-05-27T11:23:37.213Z,29.97
2018-05-27T11:26:05.536Z,31.25
2018-05-27T11:28:34.714Z,32.14
2018-05-27T11:31:03.127Z,31.70
2018-05-27T11:33:32.220Z,31.65
2018-05-27T11:36:01.647Z,29.88
2018-05-27T11:38:29.966Z,29.48
2018-05-27T11:40:58.316Z,30.04
2018-05-27T11:43:26.679Z,29.26
2018-05-27T11:45:55.015Z,29.28
2018-05-27T11:48:23.359Z,30.19
2018-05-27T11:50:51.707Z,30.84
2018-05-27T11:53:20.111Z,29.73
2018-05-27T11:55:48.465Z,30.56
2018-05-27T11:58:17.095Z,30.17
2018-05-27T12:00:45.432Z,31.12
2018-05-27T12:03:13.795Z,29.69
2018-05-27T12:05:42.921Z,28.95
2018-05-27T12:08:11.231Z,29.35
2018-05-27T12:10:39.582Z,28.67
2018-05-27T12:13:07.938Z,28.04
2018-05-27T12:15:36.276Z,27.76
2018-05-27T12:18:04.649Z,27.88
2018-05-27T12:20:33.478Z,28.34
2018-05-27T12:23:01.875Z,27.09
2018-05-27T12:25:30.192Z,27.02
2018-05-27T12:27:58.564Z,26.91
2018-05-27T12:30:26.934Z,26.74
2018-05-27T12:32:55.267Z,26.17
2018-05-27T12:35:23.650Z,26.24
2018-05-27T12:37:52.779Z,26.65
2018-05-27T12:40:21.096Z,26.22
2018-05-27T12:42:49.550Z,26.21
2018-05-27T12:45:17.918Z,26.11
2018-05-27T12:47:46.334Z,27.23
2018-05-27T12:50:14.754Z,27.11
2018-05-27T12:52:43.084Z,26.59
2018-05-27T12:55:11.432Z,26.31
2018-05-27T12:57:39.787Z,26.07
2018-05-27T13:00:08.129Z,26.03
2018-05-27T13:02:36.454Z,26.40
2018-05-27T13:05:05.349Z,27.21
2018-05-27T13:07:33.702Z,26.98
2018-05-27T13:10:02.824Z,28.06
2018-05-27T13:12:31.899Z,28.20
2018-05-27T13:15:01.024Z,27.47
2018-05-27T13:17:29.392Z,27.23
2018-05-27T13:19:57.737Z,26.66
2018-05-27T13:22:26.815Z,26.49
2018-05-27T13:24:55.153Z,26.40
2018-05-27T13:27:23.898Z,26.10
2018-05-27T13:29:52.249Z,25.33
2018-05-27T13:32:20.620Z,28.04
2018-05-27T13:34:48.979Z,28.20
2018-05-27T13:37:17.365Z,28.12
2018-05-27T13:39:45.706Z,27.44
2018-05-27T13:42:14.063Z,26.67
2018-05-27T13:44:42.382Z,26.42
2018-05-27T13:47:10.764Z,25.99
2018-05-27T13:49:39.442Z,26.46
2018-05-27T13:52:07.788Z,26.02
2018-05-27T13:54:36.129Z,25.98
2018-05-27T13:57:04.490Z,26.95
2018-05-27T13:59:32.788Z,26.81
2018-05-27T14:02:01.149Z,26.79
2018-05-27T14:04:29.476Z,26.42
2018-05-27T14:06:57.821Z,26.45
2018-05-27T14:09:26.167Z,26.42
2018-05-27T14:11:54.686Z,26.55
2018-05-27T14:14:23.047Z,25.68
2018-05-27T14:16:51.376Z,25.89
2018-05-27T14:19:19.725Z,26.10
2018-05-27T14:21:48.088Z,25.91
2018-05-27T14:24:16.452Z,26.41
2018-05-27T14:26:45.553Z,26.73
2018-05-27T14:29:13.966Z,26.81
2018-05-27T14:31:42.368Z,26.71
2018-05-27T14:34:11.106Z,26.20
2018-05-27T14:36:39.443Z,25.79
2018-05-27T14:39:08.533Z,25.04
2018-05-27T14:41:36.933Z,25.19
2018-05-27T14:44:05.248Z,25.45
2018-05-27T14:46:33.639Z,30.15
2018-05-27T14:49:02.070Z,32.04
2018-05-27T14:51:30.397Z,32.66
2018-05-27T14:53:58.734Z,31.91
2018-05-27T14:56:27.151Z,31.89
2018-05-27T14:58:55.490Z,31.98
2018-05-27T15:01:24.576Z,32.41
2018-05-27T15:03:52.951Z,32.74
2018-05-27T15:06:22.075Z,32.42
2018-05-27T15:08:50.452Z,32.40
2018-05-27T15:11:18.794Z,32.18
2018-05-27T15:13:47.108Z,32.87
2018-05-27T15:16:15.457Z,33.19
2018-05-27T15:18:44.650Z,33.95
2018-05-27T15:21:13.007Z,33.85
2018-05-27T15:23:41.424Z,35.37
2018-05-27T15:26:10.534Z,35.66
2018-05-27T15:28:39.666Z,36.26
2018-05-27T15:31:08.018Z,37.48
2018-05-27T15:33:37.185Z,38.05
2018-05-27T15:36:06.303Z,38.61
2018-05-27T15:38:35.429Z,38.88
2018-05-27T15:41:03.907Z,39.61
2018-05-27T15:43:32.253Z,39.73
2018-05-27T15:46:00.601Z,40.00
2018-05-27T15:48:28.947Z,39.73
2018-05-27T15:50:57.272Z,40.15
2018-05-27T15:53:25.591Z,40.26
2018-05-27T15:55:53.927Z,41.15
2018-05-27T15:58:22.261Z,40.93
2018-05-27T16:00:51.364Z,40.99
2018-05-27T16:03:19.899Z,40.52
2018-05-27T16:05:48.237Z,40.81
2018-05-27T16:08:16.646Z,41.02
2018-05-27T16:10:45.055Z,41.08
2018-05-27T16:13:13.418Z,41.98
2018-05-27T16:15:42.510Z,41.86
2018-05-27T16:18:10.926Z,41.94
2018-05-27T16:20:39.256Z,41.68
2018-05-27T16:23:07.595Z,42.55
2018-05-27T16:25:36.247Z,42.81
2018-05-27T16:28:05.400Z,43.08
2018-05-27T16:30:33.724Z,43.65
2018-05-27T16:33:02.895Z,43.56
2018-05-27T16:35:31.280Z,43.73
2018-05-27T16:38:00.417Z,43.69
2018-05-27T16:40:28.786Z,43.64
2018-05-27T16:42:57.126Z,44.09
2018-05-27T16:45:26.252Z,43.29
2018-05-27T16:47:54.683Z,43.76
2018-05-27T16:50:23.041Z,44.57
2018-05-27T16:52:51.407Z,44.30
2018-05-27T16:55:19.790Z,43.74
2018-05-27T16:57:48.130Z,43.89
2018-05-27T17:00:16.583Z,43.79
2018-05-27T17:02:44.984Z,44.03
2018-05-27T17:05:14.126Z,44.32
2018-05-27T17:07:42.470Z,44.04
2018-05-27T17:10:11.355Z,44.41
2018-05-27T17:12:39.777Z,44.48
2018-05-27T17:15:08.136Z,44.66
2018-05-27T17:17:36.525Z,44.89
2018-05-27T17:20:04.872Z,45.19
2018-05-27T17:22:33.341Z,45.75
2018-05-27T17:25:01.893Z,45.85
2018-05-27T17:27:30.290Z,46.47
2018-05-27T17:29:58.641Z,46.88
2018-05-27T17:32:27.119Z,46.88
2018-05-27T17:34:55.443Z,47.12
2018-05-27T17:37:23.888Z,47.51
2018-05-27T17:39:52.343Z,47.42
2018-05-27T17:42:20.660Z,48.30
2018-05-27T17:44:49.044Z,48.08
2018-05-27T17:47:17.428Z,47.96
2018-05-27T17:49:45.791Z,48.63
2018-05-27T17:52:14.100Z,48.42
2018-05-27T17:54:42.859Z,48.36
2018-05-27T17:57:11.181Z,48.49
2018-05-27T17:59:40.303Z,48.74
2018-05-27T18:02:08.697Z,48.80
2018-05-27T18:04:37.617Z,49.36
2018-05-27T18:07:06.130Z,48.90
2018-05-27T18:09:34.541Z,49.34
2018-05-27T18:12:02.864Z,49.62
2018-05-27T18:14:32.064Z,50.00
2018-05-27T18:17:01.014Z,50.41
2018-05-27T18:19:29.364Z,50.73
2018-05-27T18:21:58.561Z,50.37
2018-05-27T18:24:27.114Z,50.27
2018-05-27T18:26:55.457Z,50.54
2018-05-27T18:29:23.823Z,50.73
2018-05-27T18:31:52.294Z,51.50
2018-05-27T18:34:20.723Z,51.19
2018-05-27T18:36:49.073Z,51.10
2018-05-27T18:39:17.511Z,50.92
2018-05-27T18:41:46.652Z,51.18
2018-05-27T18:44:15.049Z,51.49
2018-05-27T18:46:43.561Z,51.64
2018-05-27T18:49:11.984Z,52.03
2018-05-27T18:51:40.420Z,51.90
2018-05-27T18:54:08.780Z,53.18
2018-05-27T18:56:37.088Z,52.59
2018-05-27T18:59:05.525Z,52.76
2018-05-27T19:01:34.740Z,52.94
2018-05-27T19:04:03.052Z,52.94
2018-05-27T19:06:32.178Z,52.75
2018-05-27T19:09:00.714Z,52.92
2018-05-27T19:11:29.067Z,53.16
2018-05-27T19:13:57.476Z,53.56
2018-05-27T19:16:25.922Z,53.58
2018-05-27T19:18:54.244Z,53.83
2018-05-27T19:21:22.641Z,54.54
2018-05-27T19:23:51.870Z,55.03
2018-05-27T19:26:20.216Z,55.42
2018-05-27T19:28:49.332Z,55.44
2018-05-27T19:31:17.692Z,55.60
2018-05-27T19:33:46.037Z,54.78
2018-05-27T19:36:15.144Z,55.19
2018-05-27T19:38:43.511Z,55.74
2018-05-27T19:41:11.904Z,55.54
2018-05-27T19:43:40.384Z,56.26
2018-05-27T19:46:08.847Z,56.06
2018-05-27T19:48:37.216Z,56.20
2018-05-27T19:51:05.588Z,56.16
2018-05-27T19:53:33.981Z,56.06
2018-05-27T19:56:02.356Z,56.62
2018-05-27T19:58:30.730Z,56.32
2018-05-27T20:00:59.139Z,56.80
2018-05-27T20:03:27.496Z,56.30
2018-05-27T20:08:55.607Z,56.61
2018-05-27T20:11:24.245Z,56.84
2018-05-27T20:13:52.621Z,57.05
2018-05-27T20:16:20.958Z,56.83
2018-05-27T20:18:50.295Z,57.07
2018-05-27T20:21:18.634Z,56.68
2018-05-27T20:23:47.011Z,57.32
2018-05-27T20:26:15.836Z,56.90
2018-05-27T20:28:44.185Z,57.36
2018-05-27T20:31:12.726Z,57.44
2018-05-27T20:33:41.162Z,56.97
2018-05-27T20:36:09.513Z,57.26
2018-05-27T20:38:37.837Z,57.08
2018-05-27T20:41:06.999Z,57.00
2018-05-27T20:43:35.339Z,56.80
2018-05-27T20:46:03.722Z,56.64
2018-05-27T20:48:32.579Z,56.80
2018-05-27T20:51:00.923Z,57.12
2018-05-27T20:53:29.307Z,56.18
2018-05-27T20:55:57.720Z,56.24
2018-05-27T20:58:26.057Z,55.67
2018-05-27T21:00:54.412Z,55.29
2018-05-27T21:03:22.777Z,54.90
2018-05-27T21:05:51.136Z,55.15
2018-05-27T21:08:19.471Z,54.38
2018-05-27T21:10:47.941Z,54.50
2018-05-27T21:13:16.381Z,53.93
2018-05-27T21:15:44.805Z,52.83
2018-05-27T21:18:13.159Z,52.56
2018-05-27T21:20:41.539Z,52.20
2018-05-27T21:23:09.878Z,50.73
2018-05-27T21:25:38.244Z,49.69
2018-05-27T21:28:07.376Z,49.77
2018-05-27T21:30:35.759Z,49.30
2018-05-27T21:33:04.320Z,48.80
2018-05-27T21:35:33.429Z,48.79
2018-05-27T21:38:01.767Z,48.28
2018-05-27T21:40:30.118Z,48.46
2018-05-27T21:42:58.516Z,48.85
2018-05-27T21:45:27.001Z,48.86
2018-05-27T21:47:55.416Z,48.55
2018-05-27T21:50:24.509Z,48.35
2018-05-27T21:52:53.594Z,47.93
2018-05-27T21:55:23.015Z,47.93
2018-05-27T21:57:51.382Z,47.66
2018-05-27T22:00:19.781Z,47.54
2018-05-27T22:02:48.139Z,47.47
2018-05-27T22:05:17.255Z,47.17
2018-05-27T22:07:45.576Z,46.91
2018-05-27T22:10:13.975Z,46.97
2018-05-27T22:12:42.308Z,47.36
2018-05-27T22:15:10.664Z,47.38
2018-05-27T22:17:40.159Z,46.86
2018-05-27T22:20:09.369Z,46.78
2018-05-27T22:22:37.757Z,46.19
2018-05-27T22:25:06.292Z,46.20
2018-05-27T22:27:34.650Z,47.23
2018-05-27T22:30:03.245Z,47.20
2018-05-27T22:32:31.710Z,47.67
2018-05-27T22:35:00.303Z,47.76
2018-05-27T22:37:28.716Z,48.08
2018-05-27T22:40:04.735Z,48.00
2018-05-27T22:42:33.089Z,48.00
2018-05-27T22:45:01.804Z,47.85
2018-05-27T22:47:30.302Z,48.72
2018-05-27T22:49:58.843Z,49.31
2018-05-27T22:52:27.297Z,49.26
2018-05-27T22:54:56.489Z,49.48
2018-05-27T22:57:25.696Z,49.48
2018-05-27T22:59:54.072Z,50.46
2018-05-27T23:02:23.277Z,50.78
2018-05-27T23:04:51.940Z,50.83
2018-05-27T23:07:20.434Z,50.94
2018-05-27T23:09:48.864Z,50.91
2018-05-27T23:12:17.296Z,50.74
2018-05-27T23:14:46.471Z,51.78
2018-05-27T23:17:14.841Z,51.22
2018-05-27T23:19:43.344Z,51.00
2018-05-27T23:22:11.838Z,50.93
2018-05-27T23:24:41.159Z,50.24
2018-05-27T23:27:10.313Z,49.90
2018-05-27T23:29:38.718Z,50.34
2018-05-27T23:32:07.873Z,51.06
2018-05-27T23:34:36.198Z,52.25
2018-05-27T23:37:05.327Z,52.20
2018-05-27T23:39:33.773Z,53.48
2018-05-27T23:42:02.171Z,52.71
2018-05-27T23:44:30.572Z,53.19
2018-05-27T23:46:59.227Z,53.20
2018-05-27T23:49:27.563Z,53.42
2018-05-27T23:51:55.921Z,53.73
2018-05-27T23:54:24.286Z,54.12
2018-05-27T23:56:52.616Z,54.60
2018-05-27T23:59:20.993Z,54.31
